sensor_id;sensor_type;location;lat;lon;timestamp;P1;durP1;ratioP1;P2;durP2;ratioP2
50781;SDS011;36749;37.428;-121.972;2022-12-29T00:02:10;26.05;;;4.68;;
50781;SDS011;36749;37.428;-121.972;2022-12-29T00:04:36;25.83;;;6.57;;
50781;SDS011;36749;37.428;-121.972;2022-12-29T00:07:02;21.45;;;4.18;;
50781;SDS011;36749;37.428;-121.972;2022-12-29T00:09:32;26.73;;;5.85;;
50781;SDS011;36749;37.428;-121.972;2022-12-29T00:11:59;25.50;;;5.88;;
50781;SDS011;36749;37.428;-121.972;2022-12-29T00:14:26;22.45;;;5.28;;
50781;SDS011;36749;37.428;-121.972;2022-12-29T00:17:11;24.00;;;4.40;;
50781;SDS011;36749;37.428;-121.972;2022-12-29T00:19:37;24.85;;;6.25;;
50781;SDS011;36749;37.428;-121.972;2022-12-29T00:22:22;25.45;;;5.43;;
50781;SDS011;36749;37.428;-121.972;2022-12-29T00:25:09;23.83;;;4.28;;
50781;SDS011;36749;37.428;-121.972;2022-12-29T00:28:03;25.35;;;6.20;;
50781;SDS011;36749;37.428;-121.972;2022-12-29T00:30:48;23.48;;;5.13;;
50781;SDS011;36749;37.428;-121.972;2022-12-29T00:33:32;26.58;;;4.85;;
50781;SDS011;36749;37.428;-121.972;2022-12-29T00:38:52;23.48;;;5.00;;
50781;SDS011;36749;37.428;-121.972;2022-12-29T00:41:50;19.83;;;4.28;;
50781;SDS011;36749;37.428;-121.972;2022-12-29T00:44:34;25.65;;;4.95;;
50781;SDS011;36749;37.428;-121.972;2022-12-29T00:47:00;22.98;;;4.88;;
50781;SDS011;36749;37.428;-121.972;2022-12-29T00:49:28;20.55;;;4.53;;
50781;SDS011;36749;37.428;-121.972;2022-12-29T00:54:38;27.65;;;6.53;;
50781;SDS011;36749;37.428;-121.972;2022-12-29T00:57:06;25.05;;;4.97;;
50781;SDS011;36749;37.428;-121.972;2022-12-29T00:59:36;27.13;;;5.30;;
50781;SDS011;36749;37.428;-121.972;2022-12-29T01:02:03;20.73;;;4.70;;
50781;SDS011;36749;37.428;-121.972;2022-12-29T01:04:30;25.33;;;5.80;;
50781;SDS011;36749;37.428;-121.972;2022-12-29T01:06:56;20.63;;;4.38;;
50781;SDS011;36749;37.428;-121.972;2022-12-29T01:09:22;25.60;;;4.97;;
50781;SDS011;36749;37.428;-121.972;2022-12-29T01:12:07;28.77;;;4.80;;
50781;SDS011;36749;37.428;-121.972;2022-12-29T01:14:34;21.83;;;4.70;;
50781;SDS011;36749;37.428;-121.972;2022-12-29T01:17:00;23.40;;;4.70;;
50781;SDS011;36749;37.428;-121.972;2022-12-29T01:19:27;21.20;;;4.45;;
50781;SDS011;36749;37.428;-121.972;2022-12-29T01:21:53;22.38;;;4.47;;
50781;SDS011;36749;37.428;-121.972;2022-12-29T01:24:19;19.13;;;4.57;;
50781;SDS011;36749;37.428;-121.972;2022-12-29T01:26:46;20.20;;;3.88;;
50781;SDS011;36749;37.428;-121.972;2022-12-29T01:29:13;25.17;;;4.68;;
50781;SDS011;36749;37.428;-121.972;2022-12-29T01:31:40;35.42;;;5.75;;
50781;SDS011;36749;37.428;-121.972;2022-12-29T01:34:06;22.42;;;4.65;;
50781;SDS011;36749;37.428;-121.972;2022-12-29T01:36:32;23.17;;;4.25;;
50781;SDS011;36749;37.428;-121.972;2022-12-29T01:38:59;20.23;;;4.20;;
50781;SDS011;36749;37.428;-121.972;2022-12-29T01:41:25;17.42;;;4.53;;
50781;SDS011;36749;37.428;-121.972;2022-12-29T01:51:35;20.98;;;5.53;;
50781;SDS011;36749;37.428;-121.972;2022-12-29T01:54:08;21.63;;;5.05;;
50781;SDS011;36749;37.428;-121.972;2022-12-29T01:56:38;16.55;;;3.85;;
50781;SDS011;36749;37.428;-121.972;2022-12-29T01:59:06;17.40;;;4.07;;
50781;SDS011;36749;37.428;-121.972;2022-12-29T02:01:36;21.88;;;4.22;;
50781;SDS011;36749;37.428;-121.972;2022-12-29T02:04:03;18.85;;;3.38;;
50781;SDS011;36749;37.428;-121.972;2022-12-29T02:06:32;15.70;;;3.53;;
50781;SDS011;36749;37.428;-121.972;2022-12-29T02:09:01;18.13;;;3.75;;
50781;SDS011;36749;37.428;-121.972;2022-12-29T02:11:27;15.68;;;3.40;;
50781;SDS011;36749;37.428;-121.972;2022-12-29T02:13:54;13.70;;;3.33;;
50781;SDS011;36749;37.428;-121.972;2022-12-29T02:30:06;13.50;;;4.03;;
50781;SDS011;36749;37.428;-121.972;2022-12-29T02:35:15;18.95;;;3.67;;
50781;SDS011;36749;37.428;-121.972;2022-12-29T02:37:56;17.50;;;5.28;;
50781;SDS011;36749;37.428;-121.972;2022-12-29T02:40:27;14.07;;;3.63;;
50781;SDS011;36749;37.428;-121.972;2022-12-29T02:43:04;20.40;;;4.57;;
50781;SDS011;36749;37.428;-121.972;2022-12-29T02:48:12;12.23;;;3.75;;
50781;SDS011;36749;37.428;-121.972;2022-12-29T02:51:03;17.15;;;3.95;;
50781;SDS011;36749;37.428;-121.972;2022-12-29T02:53:40;12.70;;;3.78;;
50781;SDS011;36749;37.428;-121.972;2022-12-29T02:56:26;22.35;;;5.35;;
50781;SDS011;36749;37.428;-121.972;2022-12-29T02:58:52;18.45;;;5.50;;
50781;SDS011;36749;37.428;-121.972;2022-12-29T03:04:46;15.10;;;4.15;;
50781;SDS011;36749;37.428;-121.972;2022-12-29T03:09:52;15.35;;;4.30;;
50781;SDS011;36749;37.428;-121.972;2022-12-29T03:12:36;20.67;;;3.97;;
50781;SDS011;36749;37.428;-121.972;2022-12-29T03:15:40;13.88;;;3.85;;
50781;SDS011;36749;37.428;-121.972;2022-12-29T03:18:41;21.40;;;4.22;;
50781;SDS011;36749;37.428;-121.972;2022-12-29T03:24:22;21.42;;;4.70;;
50781;SDS011;36749;37.428;-121.972;2022-12-29T03:26:51;21.17;;;5.15;;
50781;SDS011;36749;37.428;-121.972;2022-12-29T03:29:19;16.95;;;4.28;;
50781;SDS011;36749;37.428;-121.972;2022-12-29T03:31:47;21.25;;;4.18;;
50781;SDS011;36749;37.428;-121.972;2022-12-29T03:34:16;21.77;;;4.13;;
50781;SDS011;36749;37.428;-121.972;2022-12-29T03:36:49;19.40;;;3.50;;
50781;SDS011;36749;37.428;-121.972;2022-12-29T03:39:17;18.45;;;4.40;;
50781;SDS011;36749;37.428;-121.972;2022-12-29T03:41:45;17.13;;;4.72;;
50781;SDS011;36749;37.428;-121.972;2022-12-29T03:44:12;14.32;;;3.95;;
50781;SDS011;36749;37.428;-121.972;2022-12-29T03:46:39;20.20;;;3.70;;
50781;SDS011;36749;37.428;-121.972;2022-12-29T03:49:05;16.23;;;3.65;;
50781;SDS011;36749;37.428;-121.972;2022-12-29T03:51:31;15.20;;;3.58;;
50781;SDS011;36749;37.428;-121.972;2022-12-29T03:53:57;22.35;;;3.72;;
50781;SDS011;36749;37.428;-121.972;2022-12-29T03:56:24;20.45;;;4.43;;
50781;SDS011;36749;37.428;-121.972;2022-12-29T03:58:50;19.92;;;4.30;;
50781;SDS011;36749;37.428;-121.972;2022-12-29T04:01:16;25.33;;;5.38;;
50781;SDS011;36749;37.428;-121.972;2022-12-29T04:03:43;17.67;;;4.40;;
50781;SDS011;36749;37.428;-121.972;2022-12-29T04:06:09;16.15;;;4.68;;
50781;SDS011;36749;37.428;-121.972;2022-12-29T04:08:36;21.67;;;5.45;;
50781;SDS011;36749;37.428;-121.972;2022-12-29T04:11:02;26.60;;;12.35;;
50781;SDS011;36749;37.428;-121.972;2022-12-29T04:13:29;28.60;;;10.75;;
50781;SDS011;36749;37.428;-121.972;2022-12-29T04:15:56;27.73;;;5.93;;
50781;SDS011;36749;37.428;-121.972;2022-12-29T04:18:22;24.33;;;5.32;;
50781;SDS011;36749;37.428;-121.972;2022-12-29T04:20:48;21.08;;;4.53;;
50781;SDS011;36749;37.428;-121.972;2022-12-29T04:23:28;30.30;;;6.38;;
50781;SDS011;36749;37.428;-121.972;2022-12-29T04:25:55;28.70;;;6.00;;
50781;SDS011;36749;37.428;-121.972;2022-12-29T04:28:21;21.45;;;5.30;;
50781;SDS011;36749;37.428;-121.972;2022-12-29T04:30:48;15.35;;;4.20;;
50781;SDS011;36749;37.428;-121.972;2022-12-29T04:33:14;20.13;;;5.57;;
50781;SDS011;36749;37.428;-121.972;2022-12-29T04:35:41;23.33;;;6.15;;
50781;SDS011;36749;37.428;-121.972;2022-12-29T04:38:08;23.60;;;5.70;;
50781;SDS011;36749;37.428;-121.972;2022-12-29T04:40:37;25.92;;;6.30;;
50781;SDS011;36749;37.428;-121.972;2022-12-29T04:43:04;23.17;;;5.78;;
50781;SDS011;36749;37.428;-121.972;2022-12-29T04:45:31;16.65;;;4.20;;
50781;SDS011;36749;37.428;-121.972;2022-12-29T04:47:57;17.98;;;5.45;;
50781;SDS011;36749;37.428;-121.972;2022-12-29T04:50:23;20.95;;;6.68;;
50781;SDS011;36749;37.428;-121.972;2022-12-29T04:52:50;31.20;;;7.30;;
50781;SDS011;36749;37.428;-121.972;2022-12-29T04:55:16;20.40;;;6.57;;
50781;SDS011;36749;37.428;-121.972;2022-12-29T04:57:42;20.33;;;6.18;;
50781;SDS011;36749;37.428;-121.972;2022-12-29T05:00:09;15.88;;;4.45;;
50781;SDS011;36749;37.428;-121.972;2022-12-29T05:02:36;20.60;;;5.90;;
50781;SDS011;36749;37.428;-121.972;2022-12-29T05:05:03;16.83;;;5.65;;
50781;SDS011;36749;37.428;-121.972;2022-12-29T05:07:30;19.88;;;6.07;;
50781;SDS011;36749;37.428;-121.972;2022-12-29T05:09:58;21.23;;;6.47;;
50781;SDS011;36749;37.428;-121.972;2022-12-29T05:12:25;27.60;;;7.32;;
50781;SDS011;36749;37.428;-121.972;2022-12-29T05:14:51;24.65;;;6.43;;
50781;SDS011;36749;37.428;-121.972;2022-12-29T05:17:17;23.10;;;5.82;;
50781;SDS011;36749;37.428;-121.972;2022-12-29T05:19:43;19.92;;;6.35;;
50781;SDS011;36749;37.428;-121.972;2022-12-29T05:22:10;21.40;;;5.72;;
50781;SDS011;36749;37.428;-121.972;2022-12-29T05:24:36;18.80;;;5.38;;
50781;SDS011;36749;37.428;-121.972;2022-12-29T05:27:02;15.85;;;5.07;;
50781;SDS011;36749;37.428;-121.972;2022-12-29T05:29:28;18.20;;;6.35;;
50781;SDS011;36749;37.428;-121.972;2022-12-29T05:31:54;22.23;;;5.15;;
50781;SDS011;36749;37.428;-121.972;2022-12-29T05:34:21;18.65;;;4.80;;
50781;SDS011;36749;37.428;-121.972;2022-12-29T05:36:47;17.58;;;4.57;;
50781;SDS011;36749;37.428;-121.972;2022-12-29T05:39:13;20.73;;;5.18;;
50781;SDS011;36749;37.428;-121.972;2022-12-29T05:41:39;16.63;;;4.82;;
50781;SDS011;36749;37.428;-121.972;2022-12-29T05:44:06;20.70;;;4.95;;
50781;SDS011;36749;37.428;-121.972;2022-12-29T05:46:32;20.45;;;4.60;;
50781;SDS011;36749;37.428;-121.972;2022-12-29T05:48:58;22.30;;;5.97;;
50781;SDS011;36749;37.428;-121.972;2022-12-29T05:51:25;16.17;;;4.43;;
50781;SDS011;36749;37.428;-121.972;2022-12-29T05:53:51;21.65;;;5.38;;
50781;SDS011;36749;37.428;-121.972;2022-12-29T05:56:17;22.38;;;4.90;;
50781;SDS011;36749;37.428;-121.972;2022-12-29T05:58:44;15.80;;;4.63;;
50781;SDS011;36749;37.428;-121.972;2022-12-29T06:01:10;22.08;;;5.05;;
50781;SDS011;36749;37.428;-121.972;2022-12-29T06:03:36;19.70;;;5.15;;
50781;SDS011;36749;37.428;-121.972;2022-12-29T06:06:02;18.83;;;5.28;;
50781;SDS011;36749;37.428;-121.972;2022-12-29T06:08:29;20.85;;;6.15;;
50781;SDS011;36749;37.428;-121.972;2022-12-29T06:10:55;29.40;;;7.15;;
50781;SDS011;36749;37.428;-121.972;2022-12-29T06:13:21;21.98;;;6.10;;
50781;SDS011;36749;37.428;-121.972;2022-12-29T06:15:48;17.55;;;5.45;;
50781;SDS011;36749;37.428;-121.972;2022-12-29T06:18:14;25.08;;;7.22;;
50781;SDS011;36749;37.428;-121.972;2022-12-29T06:20:41;23.42;;;6.38;;
50781;SDS011;36749;37.428;-121.972;2022-12-29T06:23:07;18.40;;;5.68;;
50781;SDS011;36749;37.428;-121.972;2022-12-29T06:25:33;24.65;;;6.35;;
50781;SDS011;36749;37.428;-121.972;2022-12-29T06:28:01;25.33;;;7.00;;
50781;SDS011;36749;37.428;-121.972;2022-12-29T06:30:30;24.70;;;7.05;;
50781;SDS011;36749;37.428;-121.972;2022-12-29T06:32:57;22.92;;;6.20;;
50781;SDS011;36749;37.428;-121.972;2022-12-29T06:35:24;17.17;;;5.32;;
50781;SDS011;36749;37.428;-121.972;2022-12-29T06:37:50;23.85;;;7.68;;
50781;SDS011;36749;37.428;-121.972;2022-12-29T06:40:17;26.55;;;7.55;;
50781;SDS011;36749;37.428;-121.972;2022-12-29T06:42:43;26.15;;;7.45;;
50781;SDS011;36749;37.428;-121.972;2022-12-29T06:45:09;17.70;;;5.55;;
50781;SDS011;36749;37.428;-121.972;2022-12-29T06:47:36;19.55;;;5.40;;
50781;SDS011;36749;37.428;-121.972;2022-12-29T06:50:02;28.75;;;6.60;;
50781;SDS011;36749;37.428;-121.972;2022-12-29T06:52:29;17.80;;;5.53;;
50781;SDS011;36749;37.428;-121.972;2022-12-29T06:54:55;25.65;;;6.20;;
50781;SDS011;36749;37.428;-121.972;2022-12-29T06:57:21;29.17;;;7.20;;
50781;SDS011;36749;37.428;-121.972;2022-12-29T06:59:48;20.15;;;6.55;;
50781;SDS011;36749;37.428;-121.972;2022-12-29T07:02:14;26.13;;;6.85;;
50781;SDS011;36749;37.428;-121.972;2022-12-29T07:04:43;26.35;;;6.28;;
50781;SDS011;36749;37.428;-121.972;2022-12-29T07:07:09;26.13;;;6.47;;
50781;SDS011;36749;37.428;-121.972;2022-12-29T07:09:35;31.80;;;7.63;;
50781;SDS011;36749;37.428;-121.972;2022-12-29T07:12:02;31.05;;;7.80;;
50781;SDS011;36749;37.428;-121.972;2022-12-29T07:14:28;25.25;;;6.43;;
50781;SDS011;36749;37.428;-121.972;2022-12-29T07:16:54;22.85;;;6.00;;
50781;SDS011;36749;37.428;-121.972;2022-12-29T07:19:20;23.58;;;6.32;;
50781;SDS011;36749;37.428;-121.972;2022-12-29T07:21:47;26.63;;;6.13;;
50781;SDS011;36749;37.428;-121.972;2022-12-29T07:24:13;29.02;;;6.00;;
50781;SDS011;36749;37.428;-121.972;2022-12-29T07:26:39;31.33;;;6.60;;
50781;SDS011;36749;37.428;-121.972;2022-12-29T07:29:06;24.88;;;5.50;;
50781;SDS011;36749;37.428;-121.972;2022-12-29T07:31:32;30.73;;;6.05;;
50781;SDS011;36749;37.428;-121.972;2022-12-29T07:33:59;20.42;;;5.85;;
50781;SDS011;36749;37.428;-121.972;2022-12-29T07:36:25;24.60;;;6.80;;
50781;SDS011;36749;37.428;-121.972;2022-12-29T07:38:51;28.25;;;6.43;;
50781;SDS011;36749;37.428;-121.972;2022-12-29T07:41:17;22.05;;;5.28;;
50781;SDS011;36749;37.428;-121.972;2022-12-29T07:43:46;36.15;;;5.85;;
50781;SDS011;36749;37.428;-121.972;2022-12-29T07:46:14;23.58;;;5.70;;
50781;SDS011;36749;37.428;-121.972;2022-12-29T07:48:40;24.58;;;5.90;;
50781;SDS011;36749;37.428;-121.972;2022-12-29T07:51:06;21.42;;;5.05;;
50781;SDS011;36749;37.428;-121.972;2022-12-29T07:53:32;23.58;;;5.20;;
50781;SDS011;36749;37.428;-121.972;2022-12-29T07:55:59;24.20;;;5.40;;
50781;SDS011;36749;37.428;-121.972;2022-12-29T07:58:26;21.90;;;5.78;;
50781;SDS011;36749;37.428;-121.972;2022-12-29T08:00:55;18.10;;;4.70;;
50781;SDS011;36749;37.428;-121.972;2022-12-29T08:03:42;24.25;;;6.88;;
50781;SDS011;36749;37.428;-121.972;2022-12-29T08:06:11;27.38;;;5.45;;
50781;SDS011;36749;37.428;-121.972;2022-12-29T08:08:37;14.75;;;4.80;;
50781;SDS011;36749;37.428;-121.972;2022-12-29T08:11:06;23.55;;;5.90;;
50781;SDS011;36749;37.428;-121.972;2022-12-29T08:13:32;23.90;;;6.53;;
50781;SDS011;36749;37.428;-121.972;2022-12-29T08:15:59;22.42;;;4.40;;
50781;SDS011;36749;37.428;-121.972;2022-12-29T08:18:25;21.42;;;5.75;;
50781;SDS011;36749;37.428;-121.972;2022-12-29T08:20:51;24.73;;;7.60;;
50781;SDS011;36749;37.428;-121.972;2022-12-29T08:23:17;16.58;;;5.90;;
50781;SDS011;36749;37.428;-121.972;2022-12-29T08:25:43;25.48;;;6.30;;
50781;SDS011;36749;37.428;-121.972;2022-12-29T08:28:10;20.88;;;5.00;;
50781;SDS011;36749;37.428;-121.972;2022-12-29T08:30:36;21.02;;;5.93;;
50781;SDS011;36749;37.428;-121.972;2022-12-29T08:33:02;21.70;;;5.13;;
50781;SDS011;36749;37.428;-121.972;2022-12-29T08:35:28;19.70;;;5.35;;
50781;SDS011;36749;37.428;-121.972;2022-12-29T08:38:13;22.00;;;4.88;;
50781;SDS011;36749;37.428;-121.972;2022-12-29T08:40:39;23.77;;;6.15;;
50781;SDS011;36749;37.428;-121.972;2022-12-29T08:43:05;19.40;;;6.05;;
50781;SDS011;36749;37.428;-121.972;2022-12-29T08:45:31;20.33;;;5.82;;
50781;SDS011;36749;37.428;-121.972;2022-12-29T08:47:58;13.80;;;4.90;;
50781;SDS011;36749;37.428;-121.972;2022-12-29T08:50:24;25.95;;;6.95;;
50781;SDS011;36749;37.428;-121.972;2022-12-29T08:52:50;17.73;;;4.63;;
50781;SDS011;36749;37.428;-121.972;2022-12-29T08:55:16;21.13;;;5.47;;
50781;SDS011;36749;37.428;-121.972;2022-12-29T08:57:43;21.67;;;5.45;;
50781;SDS011;36749;37.428;-121.972;2022-12-29T09:00:09;19.13;;;4.30;;
50781;SDS011;36749;37.428;-121.972;2022-12-29T09:02:36;18.98;;;4.22;;
50781;SDS011;36749;37.428;-121.972;2022-12-29T09:05:02;20.55;;;5.00;;
50781;SDS011;36749;37.428;-121.972;2022-12-29T09:07:28;17.45;;;4.63;;
50781;SDS011;36749;37.428;-121.972;2022-12-29T09:09:54;18.25;;;5.30;;
50781;SDS011;36749;37.428;-121.972;2022-12-29T09:12:21;24.38;;;6.35;;
50781;SDS011;36749;37.428;-121.972;2022-12-29T09:14:47;18.65;;;4.75;;
50781;SDS011;36749;37.428;-121.972;2022-12-29T09:17:13;17.13;;;4.15;;
50781;SDS011;36749;37.428;-121.972;2022-12-29T09:22:24;20.45;;;5.22;;
50781;SDS011;36749;37.428;-121.972;2022-12-29T09:24:50;22.67;;;5.43;;
50781;SDS011;36749;37.428;-121.972;2022-12-29T09:27:16;20.00;;;5.18;;
50781;SDS011;36749;37.428;-121.972;2022-12-29T09:29:42;22.90;;;5.22;;
50781;SDS011;36749;37.428;-121.972;2022-12-29T09:32:08;15.93;;;4.20;;
50781;SDS011;36749;37.428;-121.972;2022-12-29T09:34:35;15.10;;;4.38;;
50781;SDS011;36749;37.428;-121.972;2022-12-29T09:37:01;23.67;;;5.13;;
50781;SDS011;36749;37.428;-121.972;2022-12-29T09:39:27;16.55;;;4.15;;
50781;SDS011;36749;37.428;-121.972;2022-12-29T09:47:15;17.70;;;4.25;;
50781;SDS011;36749;37.428;-121.972;2022-12-29T09:49:44;14.30;;;3.38;;
50781;SDS011;36749;37.428;-121.972;2022-12-29T09:52:36;19.55;;;4.20;;
50781;SDS011;36749;37.428;-121.972;2022-12-29T09:55:19;17.60;;;3.83;;
50781;SDS011;36749;37.428;-121.972;2022-12-29T09:57:54;15.32;;;3.70;;
50781;SDS011;36749;37.428;-121.972;2022-12-29T10:03:19;15.98;;;3.25;;
50781;SDS011;36749;37.428;-121.972;2022-12-29T10:05:48;14.27;;;3.40;;
50781;SDS011;36749;37.428;-121.972;2022-12-29T10:11:06;17.98;;;4.47;;
50781;SDS011;36749;37.428;-121.972;2022-12-29T10:16:25;16.15;;;4.03;;
50781;SDS011;36749;37.428;-121.972;2022-12-29T10:24:45;13.05;;;3.38;;
50781;SDS011;36749;37.428;-121.972;2022-12-29T10:27:12;19.58;;;3.63;;
50781;SDS011;36749;37.428;-121.972;2022-12-29T10:29:43;12.52;;;3.00;;
50781;SDS011;36749;37.428;-121.972;2022-12-29T10:35:06;11.05;;;2.53;;
50781;SDS011;36749;37.428;-121.972;2022-12-29T10:45:53;10.63;;;3.00;;
50781;SDS011;36749;37.428;-121.972;2022-12-29T10:48:28;10.50;;;2.80;;
50781;SDS011;36749;37.428;-121.972;2022-12-29T10:50:58;9.90;;;3.05;;
50781;SDS011;36749;37.428;-121.972;2022-12-29T10:53:26;9.98;;;2.78;;
50781;SDS011;36749;37.428;-121.972;2022-12-29T10:55:56;11.10;;;2.92;;
50781;SDS011;36749;37.428;-121.972;2022-12-29T10:58:25;17.67;;;3.08;;
50781;SDS011;36749;37.428;-121.972;2022-12-29T11:00:52;14.02;;;3.50;;
50781;SDS011;36749;37.428;-121.972;2022-12-29T11:06:24;10.82;;;3.17;;
50781;SDS011;36749;37.428;-121.972;2022-12-29T11:09:02;9.30;;;2.50;;
50781;SDS011;36749;37.428;-121.972;2022-12-29T11:11:38;8.65;;;2.70;;
50781;SDS011;36749;37.428;-121.972;2022-12-29T11:14:12;11.95;;;3.00;;
50781;SDS011;36749;37.428;-121.972;2022-12-29T11:16:39;14.13;;;2.67;;
50781;SDS011;36749;37.428;-121.972;2022-12-29T11:19:19;9.15;;;3.30;;
50781;SDS011;36749;37.428;-121.972;2022-12-29T11:21:47;11.63;;;3.28;;
50781;SDS011;36749;37.428;-121.972;2022-12-29T11:24:20;14.57;;;2.75;;
50781;SDS011;36749;37.428;-121.972;2022-12-29T11:26:48;11.25;;;2.90;;
50781;SDS011;36749;37.428;-121.972;2022-12-29T11:29:29;8.20;;;2.13;;
50781;SDS011;36749;37.428;-121.972;2022-12-29T11:32:10;8.80;;;2.85;;
50781;SDS011;36749;37.428;-121.972;2022-12-29T11:37:15;6.30;;;1.80;;
50781;SDS011;36749;37.428;-121.972;2022-12-29T11:39:46;8.20;;;2.33;;
50781;SDS011;36749;37.428;-121.972;2022-12-29T11:42:36;10.15;;;2.55;;
50781;SDS011;36749;37.428;-121.972;2022-12-29T11:45:22;7.60;;;2.33;;
50781;SDS011;36749;37.428;-121.972;2022-12-29T11:47:53;11.38;;;2.92;;
50781;SDS011;36749;37.428;-121.972;2022-12-29T11:50:26;10.00;;;2.65;;
50781;SDS011;36749;37.428;-121.972;2022-12-29T11:52:57;17.95;;;2.80;;
50781;SDS011;36749;37.428;-121.972;2022-12-29T11:55:26;13.32;;;3.35;;
50781;SDS011;36749;37.428;-121.972;2022-12-29T11:57:52;14.48;;;3.33;;
50781;SDS011;36749;37.428;-121.972;2022-12-29T12:00:21;14.50;;;2.60;;
50781;SDS011;36749;37.428;-121.972;2022-12-29T12:05:33;11.30;;;2.97;;
50781;SDS011;36749;37.428;-121.972;2022-12-29T12:10:46;11.32;;;2.50;;
50781;SDS011;36749;37.428;-121.972;2022-12-29T12:13:39;14.65;;;2.63;;
50781;SDS011;36749;37.428;-121.972;2022-12-29T12:16:24;15.90;;;2.80;;
50781;SDS011;36749;37.428;-121.972;2022-12-29T12:19:00;9.32;;;2.67;;
50781;SDS011;36749;37.428;-121.972;2022-12-29T12:21:38;17.25;;;2.85;;
50781;SDS011;36749;37.428;-121.972;2022-12-29T12:32:17;15.98;;;4.10;;
50781;SDS011;36749;37.428;-121.972;2022-12-29T12:34:47;12.95;;;2.80;;
50781;SDS011;36749;37.428;-121.972;2022-12-29T12:57:28;8.15;;;2.47;;
50781;SDS011;36749;37.428;-121.972;2022-12-29T13:00:11;20.02;;;3.15;;
50781;SDS011;36749;37.428;-121.972;2022-12-29T13:02:53;13.40;;;2.92;;
50781;SDS011;36749;37.428;-121.972;2022-12-29T13:16:48;10.23;;;2.60;;
50781;SDS011;36749;37.428;-121.972;2022-12-29T13:20:12;9.85;;;2.80;;
50781;SDS011;36749;37.428;-121.972;2022-12-29T13:22:38;9.35;;;2.22;;
50781;SDS011;36749;37.428;-121.972;2022-12-29T13:30:20;12.45;;;4.25;;
50781;SDS011;36749;37.428;-121.972;2022-12-29T13:35:39;10.35;;;3.05;;
50781;SDS011;36749;37.428;-121.972;2022-12-29T13:41:08;6.55;;;2.45;;
50781;SDS011;36749;37.428;-121.972;2022-12-29T13:46:27;8.23;;;1.95;;
50781;SDS011;36749;37.428;-121.972;2022-12-29T13:48:58;7.38;;;2.08;;
50781;SDS011;36749;37.428;-121.972;2022-12-29T13:51:30;6.05;;;1.77;;
50781;SDS011;36749;37.428;-121.972;2022-12-29T13:54:11;5.75;;;2.35;;
50781;SDS011;36749;37.428;-121.972;2022-12-29T13:56:51;8.90;;;2.25;;
50781;SDS011;36749;37.428;-121.972;2022-12-29T14:04:58;5.15;;;2.10;;
50781;SDS011;36749;37.428;-121.972;2022-12-29T14:07:29;5.50;;;1.65;;
50781;SDS011;36749;37.428;-121.972;2022-12-29T14:09:56;4.55;;;2.22;;
50781;SDS011;36749;37.428;-121.972;2022-12-29T14:15:04;8.65;;;2.20;;
50781;SDS011;36749;37.428;-121.972;2022-12-29T14:17:32;10.07;;;2.67;;
50781;SDS011;36749;37.428;-121.972;2022-12-29T14:19:59;6.65;;;2.00;;
50781;SDS011;36749;37.428;-121.972;2022-12-29T14:22:25;5.90;;;1.92;;
50781;SDS011;36749;37.428;-121.972;2022-12-29T14:24:52;10.10;;;2.67;;
50781;SDS011;36749;37.428;-121.972;2022-12-29T14:29:46;6.78;;;2.00;;
50781;SDS011;36749;37.428;-121.972;2022-12-29T14:34:55;6.38;;;1.98;;
50781;SDS011;36749;37.428;-121.972;2022-12-29T14:37:32;8.07;;;2.25;;
50781;SDS011;36749;37.428;-121.972;2022-12-29T14:40:04;10.13;;;2.05;;
50781;SDS011;36749;37.428;-121.972;2022-12-29T14:42:40;5.80;;;2.00;;
50781;SDS011;36749;37.428;-121.972;2022-12-29T14:47:49;4.28;;;1.95;;
50781;SDS011;36749;37.428;-121.972;2022-12-29T14:52:55;7.57;;;2.22;;
50781;SDS011;36749;37.428;-121.972;2022-12-29T14:57:59;7.72;;;1.70;;
50781;SDS011;36749;37.428;-121.972;2022-12-29T15:00:30;3.97;;;1.73;;
50781;SDS011;36749;37.428;-121.972;2022-12-29T15:03:07;4.50;;;1.90;;
50781;SDS011;36749;37.428;-121.972;2022-12-29T15:05:44;4.97;;;1.52;;
50781;SDS011;36749;37.428;-121.972;2022-12-29T15:08:24;7.60;;;1.50;;
50781;SDS011;36749;37.428;-121.972;2022-12-29T15:10:55;7.57;;;1.55;;
50781;SDS011;36749;37.428;-121.972;2022-12-29T15:13:23;4.85;;;1.52;;
50781;SDS011;36749;37.428;-121.972;2022-12-29T15:15:51;6.03;;;1.83;;
50781;SDS011;36749;37.428;-121.972;2022-12-29T15:18:24;10.35;;;2.03;;
50781;SDS011;36749;37.428;-121.972;2022-12-29T15:20:53;2.92;;;1.70;;
50781;SDS011;36749;37.428;-121.972;2022-12-29T15:23:21;4.93;;;1.60;;
50781;SDS011;36749;37.428;-121.972;2022-12-29T15:25:50;5.38;;;1.65;;
50781;SDS011;36749;37.428;-121.972;2022-12-29T15:28:20;3.95;;;1.33;;
50781;SDS011;36749;37.428;-121.972;2022-12-29T15:31:01;4.95;;;1.55;;
50781;SDS011;36749;37.428;-121.972;2022-12-29T15:33:29;5.50;;;1.67;;
50781;SDS011;36749;37.428;-121.972;2022-12-29T15:35:56;6.97;;;1.70;;
50781;SDS011;36749;37.428;-121.972;2022-12-29T15:38:29;6.85;;;1.80;;
50781;SDS011;36749;37.428;-121.972;2022-12-29T15:41:06;5.28;;;1.90;;
50781;SDS011;36749;37.428;-121.972;2022-12-29T15:43:47;7.13;;;1.77;;
50781;SDS011;36749;37.428;-121.972;2022-12-29T15:46:17;5.70;;;2.05;;
50781;SDS011;36749;37.428;-121.972;2022-12-29T15:48:43;4.18;;;1.95;;
50781;SDS011;36749;37.428;-121.972;2022-12-29T15:51:20;6.45;;;1.92;;
50781;SDS011;36749;37.428;-121.972;2022-12-29T15:53:49;7.18;;;2.10;;
50781;SDS011;36749;37.428;-121.972;2022-12-29T15:56:16;5.88;;;1.85;;
50781;SDS011;36749;37.428;-121.972;2022-12-29T15:58:43;8.50;;;1.85;;
50781;SDS011;36749;37.428;-121.972;2022-12-29T16:01:19;5.03;;;2.05;;
50781;SDS011;36749;37.428;-121.972;2022-12-29T16:04:07;6.85;;;1.75;;
50781;SDS011;36749;37.428;-121.972;2022-12-29T16:06:35;6.57;;;1.75;;
50781;SDS011;36749;37.428;-121.972;2022-12-29T16:09:06;4.85;;;1.90;;
50781;SDS011;36749;37.428;-121.972;2022-12-29T16:11:40;9.45;;;1.77;;
50781;SDS011;36749;37.428;-121.972;2022-12-29T16:14:20;8.07;;;2.72;;
50781;SDS011;36749;37.428;-121.972;2022-12-29T16:16:50;5.38;;;1.67;;
50781;SDS011;36749;37.428;-121.972;2022-12-29T16:19:39;4.38;;;2.03;;
50781;SDS011;36749;37.428;-121.972;2022-12-29T16:22:16;10.75;;;1.65;;
50781;SDS011;36749;37.428;-121.972;2022-12-29T16:24:47;4.95;;;2.20;;
50781;SDS011;36749;37.428;-121.972;2022-12-29T16:27:17;4.97;;;1.40;;
50781;SDS011;36749;37.428;-121.972;2022-12-29T16:29:53;6.55;;;1.73;;
50781;SDS011;36749;37.428;-121.972;2022-12-29T16:32:24;2.90;;;1.33;;
50781;SDS011;36749;37.428;-121.972;2022-12-29T16:40:57;5.88;;;1.55;;
50781;SDS011;36749;37.428;-121.972;2022-12-29T16:43:31;2.90;;;1.35;;
50781;SDS011;36749;37.428;-121.972;2022-12-29T16:51:21;4.32;;;1.48;;
50781;SDS011;36749;37.428;-121.972;2022-12-29T16:53:56;9.07;;;1.75;;
50781;SDS011;36749;37.428;-121.972;2022-12-29T16:56:24;2.65;;;1.23;;
50781;SDS011;36749;37.428;-121.972;2022-12-29T16:59:01;5.35;;;1.40;;
50781;SDS011;36749;37.428;-121.972;2022-12-29T17:01:37;11.57;;;2.25;;
50781;SDS011;36749;37.428;-121.972;2022-12-29T17:04:07;5.60;;;1.70;;
50781;SDS011;36749;37.428;-121.972;2022-12-29T17:06:35;8.05;;;1.83;;
50781;SDS011;36749;37.428;-121.972;2022-12-29T17:09:02;3.17;;;1.20;;